createdAt,value
2023-02-28T00:00:38.038Z,22.35
2023-02-28T00:03:05.103Z,21.95
2023-02-28T00:05:31.874Z,22.75
2023-02-28T00:07:58.532Z,22.40
2023-02-28T00:10:28.304Z,21.88
2023-02-28T00:12:57.710Z,23.15
2023-02-28T00:15:25.102Z,22.05
2023-02-28T00:17:51.938Z,22.63
2023-02-28T00:20:19.292Z,21.85
2023-02-28T00:22:48.250Z,22.50
2023-02-28T00:25:18.913Z,22.20
2023-02-28T00:27:45.559Z,22.52
2023-02-28T00:30:15.845Z,22.63
2023-02-28T00:32:42.896Z,22.60
2023-02-28T00:35:10.695Z,22.38
2023-02-28T00:37:37.610Z,22.65
2023-02-28T00:40:07.163Z,22.60
2023-02-28T00:42:35.383Z,22.45
2023-02-28T00:45:02.508Z,22.15
2023-02-28T00:47:29.188Z,22.17
2023-02-28T00:49:55.905Z,23.83
2023-02-28T00:52:22.638Z,22.48
2023-02-28T00:54:49.248Z,22.15
2023-02-28T00:57:16.044Z,23.17
2023-02-28T00:59:42.870Z,22.90
2023-02-28T01:02:09.469Z,22.83
2023-02-28T01:04:37.240Z,22.80
2023-02-28T01:07:04.456Z,22.75
2023-02-28T01:09:31.644Z,22.58
2023-02-28T01:11:58.778Z,23.95
2023-02-28T01:14:26.135Z,22.23
2023-02-28T01:16:52.830Z,22.42
2023-02-28T01:19:19.443Z,23.17
2023-02-28T01:21:46.917Z,22.63
2023-02-28T01:24:13.587Z,22.60
2023-02-28T01:26:40.347Z,22.80
2023-02-28T01:29:08.029Z,22.50
2023-02-28T01:31:35.334Z,22.15
2023-02-28T01:34:02.327Z,22.45
2023-02-28T01:36:30.703Z,22.30
2023-02-28T01:38:57.399Z,22.38
2023-02-28T01:41:28.420Z,22.83
2023-02-28T01:43:57.315Z,23.45
2023-02-28T01:46:24.127Z,22.02
2023-02-28T01:48:57.898Z,22.52
2023-02-28T01:51:55.476Z,22.38
2023-02-28T01:54:30.273Z,23.02
2023-02-28T01:59:49.802Z,22.60
2023-02-28T02:02:19.273Z,22.80
2023-02-28T02:04:59.503Z,22.45
2023-02-28T02:07:27.858Z,23.08
2023-02-28T02:10:07.280Z,22.73
2023-02-28T02:13:01.576Z,22.60
2023-02-28T02:15:46.085Z,22.77
2023-02-28T02:18:36.201Z,22.45
2023-02-28T02:21:16.579Z,22.35
2023-02-28T02:24:02.416Z,22.13
2023-02-28T02:27:07.945Z,22.65
2023-02-28T02:30:08.632Z,22.52
2023-02-28T02:32:59.931Z,22.33
2023-02-28T02:35:40.731Z,22.67
2023-02-28T02:38:51.812Z,22.95
2023-02-28T02:41:25.943Z,22.80
2023-02-28T02:44:14.069Z,23.00
2023-02-28T02:46:54.807Z,23.08
2023-02-28T02:49:27.124Z,23.25
2023-02-28T02:51:57.493Z,22.92
2023-02-28T02:54:31.768Z,23.15
2023-02-28T02:57:02.452Z,23.13
2023-02-28T02:59:30.094Z,22.95
2023-02-28T03:02:00.641Z,23.15
2023-02-28T03:04:32.161Z,23.00
2023-02-28T03:06:59.222Z,22.73
2023-02-28T03:09:26.988Z,22.38
2023-02-28T03:11:56.643Z,22.70
2023-02-28T03:14:51.731Z,22.50
2023-02-28T03:17:39.653Z,22.48
2023-02-28T03:20:32.460Z,22.52
2023-02-28T03:23:16.095Z,22.48
2023-02-28T03:26:14.710Z,22.73
2023-02-28T03:29:02.502Z,23.08
2023-02-28T03:31:45.508Z,22.35
2023-02-28T03:34:22.158Z,22.70
2023-02-28T03:36:56.455Z,22.90
2023-02-28T03:39:46.010Z,22.83
2023-02-28T03:42:17.093Z,22.67
2023-02-28T03:44:53.060Z,22.33
2023-02-28T03:47:32.697Z,22.98
2023-02-28T03:50:08.034Z,22.77
2023-02-28T03:52:39.020Z,23.00
2023-02-28T03:55:11.772Z,23.90
2023-02-28T03:57:57.639Z,23.38
2023-02-28T04:00:37.839Z,23.55
2023-02-28T04:03:05.367Z,22.77
2023-02-28T04:05:32.862Z,23.05
2023-02-28T04:08:07.693Z,22.30
2023-02-28T04:10:34.476Z,21.83
2023-02-28T04:13:01.059Z,22.33
2023-02-28T04:15:28.234Z,22.05
2023-02-28T04:17:54.909Z,22.45
2023-02-28T04:20:21.554Z,22.98
2023-02-28T04:22:48.302Z,22.55
2023-02-28T04:25:14.944Z,22.35
2023-02-28T04:27:41.570Z,23.00
2023-02-28T04:30:09.087Z,22.13
2023-02-28T04:32:35.687Z,22.50
2023-02-28T04:35:03.474Z,23.70
2023-02-28T04:37:30.127Z,23.15
2023-02-28T04:39:56.850Z,21.92
2023-02-28T04:42:24.578Z,22.60
2023-02-28T04:44:51.276Z,22.45
2023-02-28T04:47:17.883Z,22.35
2023-02-28T04:49:44.489Z,22.90
2023-02-28T04:52:11.438Z,22.40
2023-02-28T04:54:39.892Z,22.90
2023-02-28T04:57:06.810Z,23.05
2023-02-28T04:59:33.773Z,22.38
2023-02-28T05:02:00.566Z,23.02
2023-02-28T05:04:27.214Z,22.58
2023-02-28T05:06:53.805Z,22.85
2023-02-28T05:09:20.413Z,22.90
2023-02-28T05:11:47.075Z,22.02
2023-02-28T05:14:15.013Z,22.10
2023-02-28T05:16:42.161Z,22.85
2023-02-28T05:19:08.864Z,23.98
2023-02-28T05:21:40.753Z,23.25
2023-02-28T05:24:12.346Z,23.42
2023-02-28T05:26:43.711Z,24.40
2023-02-28T05:29:11.536Z,23.85
2023-02-28T05:31:38.577Z,25.10
2023-02-28T05:34:05.393Z,24.98
2023-02-28T05:36:32.135Z,24.08
2023-02-28T05:38:58.950Z,23.50
2023-02-28T05:41:27.206Z,23.67
2023-02-28T05:43:54.149Z,23.80
2023-02-28T05:46:20.814Z,23.65
2023-02-28T05:48:49.030Z,23.20
2023-02-28T05:51:16.124Z,24.25
2023-02-28T05:53:42.688Z,23.90
2023-02-28T05:56:09.357Z,23.08
2023-02-28T05:58:35.952Z,24.60
2023-02-28T06:01:22.012Z,24.05
2023-02-28T06:03:48.652Z,24.50
2023-02-28T06:06:15.260Z,25.45
2023-02-28T06:08:44.225Z,24.80
2023-02-28T06:11:10.852Z,24.38
2023-02-28T06:13:37.447Z,24.63
2023-02-28T06:16:04.180Z,33.78
2023-02-28T06:18:30.920Z,24.00
2023-02-28T06:20:57.483Z,24.73
2023-02-28T06:23:24.077Z,24.15
2023-02-28T06:25:50.741Z,24.30
2023-02-28T06:28:17.449Z,29.75
2023-02-28T06:30:46.379Z,30.13
2023-02-28T06:33:13.376Z,28.67
2023-02-28T06:35:40.060Z,28.08
2023-02-28T06:38:06.747Z,33.33
2023-02-28T06:40:35.896Z,32.75
2023-02-28T06:43:03.118Z,33.17
2023-02-28T06:45:29.828Z,33.58
2023-02-28T06:47:56.409Z,34.08
2023-02-28T06:50:23.077Z,33.67
2023-02-28T06:52:54.660Z,32.80
2023-02-28T06:55:21.333Z,32.97
2023-02-28T06:57:47.971Z,31.55
2023-02-28T07:00:15.183Z,32.15
2023-02-28T07:02:42.068Z,30.88
2023-02-28T07:05:09.162Z,31.38
2023-02-28T07:07:38.158Z,31.70
2023-02-28T07:10:05.071Z,30.63
2023-02-28T07:12:31.685Z,32.72
2023-02-28T07:14:58.307Z,30.88
2023-02-28T07:17:24.985Z,31.88
2023-02-28T07:19:51.567Z,30.83
2023-02-28T07:22:18.392Z,31.15
2023-02-28T07:24:45.204Z,30.30
2023-02-28T07:27:12.191Z,30.52
2023-02-28T07:29:39.097Z,31.42
2023-02-28T07:32:05.868Z,31.73
2023-02-28T07:34:32.477Z,31.92
2023-02-28T07:36:59.151Z,31.60
2023-02-28T07:39:25.736Z,31.20
2023-02-28T07:41:52.369Z,31.15
2023-02-28T07:44:19.256Z,31.73
2023-02-28T07:46:45.901Z,31.85
2023-02-28T07:49:12.524Z,33.63
2023-02-28T07:51:39.125Z,34.35
2023-02-28T07:54:06.137Z,35.38
2023-02-28T07:56:33.053Z,36.92
2023-02-28T07:58:59.781Z,34.60
2023-02-28T08:01:26.500Z,36.65
2023-02-28T08:03:53.195Z,37.97
2023-02-28T08:06:23.053Z,37.60
2023-02-28T08:08:50.280Z,38.85
2023-02-28T08:11:17.843Z,38.35
2023-02-28T08:13:45.645Z,38.08
2023-02-28T08:16:18.194Z,34.17
2023-02-28T08:18:44.956Z,34.25
2023-02-28T08:21:11.607Z,34.20
2023-02-28T08:23:38.940Z,34.72
2023-02-28T08:26:05.879Z,35.53
2023-02-28T08:28:33.170Z,34.08
2023-02-28T08:31:00.062Z,32.75
2023-02-28T08:33:28.694Z,32.88
2023-02-28T08:35:56.795Z,32.35
2023-02-28T08:38:24.416Z,34.38
2023-02-28T08:40:57.490Z,31.58
2023-02-28T08:43:24.080Z,34.40
2023-02-28T08:45:53.366Z,31.73
2023-02-28T08:48:20.054Z,35.70
2023-02-28T08:51:07.228Z,32.35
2023-02-28T08:53:35.146Z,32.67
2023-02-28T08:56:04.780Z,33.72
2023-02-28T08:58:31.493Z,35.42
2023-02-28T09:00:58.274Z,30.30
2023-02-28T09:03:25.466Z,30.85
2023-02-28T09:06:01.777Z,31.05
2023-02-28T09:08:31.130Z,30.52
2023-02-28T09:10:59.218Z,30.58
2023-02-28T09:13:27.549Z,31.52
2023-02-28T09:15:55.147Z,31.02
2023-02-28T09:18:22.154Z,30.00
2023-02-28T09:20:48.717Z,31.10
2023-02-28T09:23:15.528Z,31.80
2023-02-28T09:25:54.145Z,31.27
2023-02-28T09:28:21.669Z,31.17
2023-02-28T09:30:54.329Z,32.67
2023-02-28T09:33:22.438Z,31.30
2023-02-28T09:35:50.175Z,32.75
2023-02-28T09:38:17.764Z,32.40
2023-02-28T09:40:59.812Z,34.25
2023-02-28T09:43:38.574Z,32.60
2023-02-28T09:46:34.035Z,33.30
2023-02-28T09:51:57.397Z,36.28
2023-02-28T09:54:25.930Z,38.40
2023-02-28T09:57:01.763Z,39.72
2023-02-28T10:00:18.241Z,33.67
2023-02-28T10:03:07.437Z,39.33
2023-02-28T10:05:45.828Z,35.95
2023-02-28T10:08:21.511Z,37.58
2023-02-28T10:10:54.188Z,38.15
2023-02-28T10:13:27.281Z,37.30
2023-02-28T10:16:28.119Z,39.90
2023-02-28T10:19:47.293Z,39.13
2023-02-28T10:22:36.970Z,38.70
2023-02-28T10:25:17.330Z,40.63
2023-02-28T10:27:44.901Z,36.15
2023-02-28T10:30:14.659Z,41.22
2023-02-28T10:32:48.607Z,39.63
2023-02-28T10:35:19.625Z,36.00
2023-02-28T10:37:49.929Z,39.35
2023-02-28T10:40:19.250Z,39.50
2023-02-28T10:43:14.886Z,38.65
2023-02-28T10:48:20.355Z,39.85
2023-02-28T10:50:58.601Z,37.00
2023-02-28T10:53:28.092Z,39.97
2023-02-28T10:56:08.898Z,37.60
2023-02-28T10:59:02.004Z,39.35
2023-02-28T11:01:42.361Z,39.60
2023-02-28T11:04:30.485Z,40.05
2023-02-28T11:07:02.472Z,40.03
2023-02-28T11:09:35.733Z,39.20
2023-02-28T11:12:05.624Z,37.40
2023-02-28T11:14:37.309Z,39.03
2023-02-28T11:17:22.585Z,36.90
2023-02-28T11:19:52.909Z,39.72
2023-02-28T11:22:24.228Z,39.95
2023-02-28T11:24:55.912Z,39.38
2023-02-28T11:27:26.643Z,37.83
2023-02-28T11:29:53.414Z,40.17
2023-02-28T11:32:25.484Z,35.97
2023-02-28T11:35:14.780Z,39.55
2023-02-28T11:37:42.401Z,40.85
2023-02-28T11:40:17.722Z,41.15
2023-02-28T11:43:10.805Z,41.65
2023-02-28T11:45:51.255Z,40.40
2023-02-28T11:48:26.163Z,40.63
2023-02-28T11:51:02.189Z,41.25
2023-02-28T11:54:06.111Z,41.67
2023-02-28T11:56:44.097Z,39.65
2023-02-28T11:59:47.473Z,40.03
2023-02-28T12:02:52.594Z,41.10
2023-02-28T12:05:44.776Z,37.15
2023-02-28T12:08:28.221Z,35.47
2023-02-28T12:11:19.089Z,36.42
2023-02-28T12:14:26.274Z,36.90
2023-02-28T12:17:04.816Z,35.85
2023-02-28T12:20:14.495Z,36.78
2023-02-28T12:22:47.571Z,34.53
2023-02-28T12:25:21.238Z,32.03
2023-02-28T12:27:50.566Z,36.78
2023-02-28T12:30:23.408Z,33.45
2023-02-28T12:32:56.272Z,37.30
2023-02-28T12:35:28.649Z,35.17
2023-02-28T12:38:20.329Z,34.78
2023-02-28T12:41:03.274Z,36.15
2023-02-28T12:43:46.225Z,37.47
2023-02-28T12:46:22.514Z,39.17
2023-02-28T12:48:54.227Z,39.47
2023-02-28T12:51:21.483Z,39.75
2023-02-28T12:53:55.837Z,40.58
2023-02-28T12:56:37.949Z,38.00
2023-02-28T12:59:18.105Z,37.30
2023-02-28T13:02:02.728Z,39.50
2023-02-28T13:04:38.804Z,40.33
2023-02-28T13:07:17.367Z,39.33
2023-02-28T13:09:56.974Z,42.67
2023-02-28T13:12:24.476Z,41.15
2023-02-28T13:15:01.343Z,39.95
2023-02-28T13:17:28.090Z,40.70
2023-02-28T13:19:54.834Z,41.28
2023-02-28T13:22:40.639Z,42.95
2023-02-28T13:25:22.720Z,36.55
2023-02-28T13:28:04.732Z,35.95
2023-02-28T13:30:53.711Z,39.70
2023-02-28T13:33:25.898Z,38.53
2023-02-28T13:36:14.654Z,34.42
2023-02-28T13:38:43.792Z,34.72
2023-02-28T13:41:32.574Z,35.65
2023-02-28T13:44:18.592Z,35.00
2023-02-28T13:46:48.352Z,40.50
2023-02-28T13:49:30.256Z,39.70
2023-02-28T13:52:09.646Z,40.65
2023-02-28T13:54:51.856Z,39.60
2023-02-28T13:57:43.569Z,40.95
2023-02-28T14:00:29.260Z,40.47
2023-02-28T14:03:12.475Z,39.65
2023-02-28T14:05:39.912Z,41.13
2023-02-28T14:08:23.904Z,41.92
2023-02-28T14:11:03.299Z,41.90
2023-02-28T14:13:49.238Z,41.28
2023-02-28T14:16:24.978Z,42.28
2023-02-28T14:19:01.060Z,42.30
2023-02-28T14:21:31.726Z,39.90
2023-02-28T14:24:20.586Z,40.55
2023-02-28T14:27:04.615Z,42.28
2023-02-28T14:29:42.747Z,40.78
2023-02-28T14:32:22.981Z,39.60
2023-02-28T14:35:03.121Z,41.13
2023-02-28T14:37:34.150Z,39.70
2023-02-28T14:40:02.287Z,39.97
2023-02-28T14:42:42.541Z,39.53
2023-02-28T14:45:21.248Z,39.65
2023-02-28T14:47:49.780Z,39.33
2023-02-28T14:50:34.843Z,39.85
2023-02-28T14:55:38.083Z,40.22
2023-02-28T14:58:10.044Z,40.97
2023-02-28T15:00:47.035Z,40.40
2023-02-28T15:03:25.701Z,41.65
2023-02-28T15:05:58.204Z,39.58
2023-02-28T15:08:26.881Z,40.22
2023-02-28T15:10:58.678Z,39.95
2023-02-28T15:13:37.684Z,40.05
2023-02-28T15:16:19.108Z,41.42
2023-02-28T15:18:55.886Z,39.45
2023-02-28T15:21:29.932Z,40.08
2023-02-28T15:24:09.632Z,40.67
2023-02-28T15:26:43.021Z,38.72
2023-02-28T15:29:18.897Z,39.63
2023-02-28T15:31:57.289Z,39.50
2023-02-28T15:34:44.853Z,39.25
2023-02-28T15:37:31.523Z,40.33
2023-02-28T15:40:05.902Z,40.17
2023-02-28T15:42:32.571Z,41.35
2023-02-28T15:45:00.629Z,40.17
2023-02-28T15:47:29.570Z,39.92
2023-02-28T15:49:59.578Z,40.97
2023-02-28T15:52:41.799Z,41.67
2023-02-28T15:55:28.204Z,42.92
2023-02-28T15:57:59.499Z,44.78
2023-02-28T16:00:28.021Z,43.65
2023-02-28T16:02:54.770Z,45.53
2023-02-28T16:05:32.744Z,45.47
2023-02-28T16:08:14.479Z,44.90
2023-02-28T16:10:41.201Z,46.30
2023-02-28T16:13:12.779Z,42.60
2023-02-28T16:15:44.087Z,40.38
2023-02-28T16:18:12.476Z,42.63
2023-02-28T16:20:39.428Z,46.72
2023-02-28T16:23:06.121Z,44.55
2023-02-28T16:25:42.690Z,50.50
2023-02-28T16:28:18.581Z,45.90
2023-02-28T16:30:45.466Z,44.25
2023-02-28T16:33:12.112Z,40.05
2023-02-28T16:35:38.807Z,38.58
2023-02-28T16:38:05.852Z,38.38
2023-02-28T16:40:36.048Z,37.40
2023-02-28T16:43:08.261Z,37.15
2023-02-28T16:45:34.986Z,38.42
2023-02-28T16:48:01.682Z,37.75
2023-02-28T16:50:30.467Z,38.95
2023-02-28T16:52:57.472Z,39.90
2023-02-28T16:55:25.955Z,41.80
2023-02-28T16:57:58.377Z,39.85
2023-02-28T17:00:28.045Z,28.67
2023-02-28T17:02:55.312Z,29.52
2023-02-28T17:05:22.792Z,29.63
2023-02-28T17:07:50.083Z,28.90
2023-02-28T17:10:19.650Z,29.50
2023-02-28T17:12:46.310Z,29.45
2023-02-28T17:15:14.729Z,30.70
2023-02-28T17:17:42.373Z,31.52
2023-02-28T17:20:14.300Z,34.20
2023-02-28T17:22:41.357Z,31.35
2023-02-28T17:25:10.354Z,32.17
2023-02-28T17:27:37.768Z,30.88
2023-02-28T17:30:22.028Z,29.20
2023-02-28T17:32:48.714Z,30.40
2023-02-28T17:35:15.645Z,31.33
2023-02-28T17:37:42.937Z,30.77
2023-02-28T17:40:22.203Z,39.53
2023-02-28T17:42:48.858Z,31.38
2023-02-28T17:45:16.525Z,30.17
2023-02-28T17:47:46.352Z,30.83
2023-02-28T17:50:17.521Z,30.70
2023-02-28T17:52:44.246Z,32.50
2023-02-28T17:55:11.985Z,34.03
2023-02-28T17:57:38.792Z,32.38
2023-02-28T18:00:07.612Z,33.75
2023-02-28T18:02:38.239Z,32.88
2023-02-28T18:05:05.408Z,33.40
2023-02-28T18:07:32.295Z,35.08
2023-02-28T18:09:58.989Z,34.25
2023-02-28T18:12:26.196Z,32.65
2023-02-28T18:14:52.904Z,31.25
2023-02-28T18:17:19.525Z,29.30
2023-02-28T18:19:46.121Z,31.08
2023-02-28T18:22:12.722Z,29.85
2023-02-28T18:24:39.693Z,34.50
2023-02-28T18:27:07.007Z,31.00
2023-02-28T18:29:33.689Z,30.63
2023-02-28T18:32:02.223Z,31.70
2023-02-28T18:34:30.515Z,45.47
2023-02-28T18:36:57.592Z,38.55
2023-02-28T18:39:24.378Z,50.20
2023-02-28T18:41:51.032Z,39.78
2023-02-28T18:44:20.368Z,38.40
2023-02-28T18:46:49.292Z,44.03
2023-02-28T18:49:16.266Z,40.80
2023-02-28T18:51:45.122Z,42.60
2023-02-28T18:54:13.467Z,37.10
2023-02-28T18:56:40.114Z,31.40
2023-02-28T18:59:06.861Z,30.48
2023-02-28T19:01:34.441Z,31.58
2023-02-28T19:04:03.319Z,29.85
2023-02-28T19:06:31.546Z,31.52
2023-02-28T19:08:59.955Z,32.20
2023-02-28T19:11:27.890Z,32.63
2023-02-28T19:13:54.613Z,31.50
2023-02-28T19:16:21.950Z,32.15
2023-02-28T19:18:49.095Z,33.25
2023-02-28T19:21:17.704Z,34.28
2023-02-28T19:23:44.804Z,34.13
2023-02-28T19:26:14.481Z,32.20
2023-02-28T19:28:41.411Z,64.85
2023-02-28T19:31:16.218Z,37.30
2023-02-28T19:36:12.416Z,35.60
2023-02-28T19:38:40.070Z,34.75
2023-02-28T19:41:10.927Z,31.20
2023-02-28T19:43:37.909Z,32.00
2023-02-28T19:46:05.186Z,34.58
2023-02-28T19:48:31.988Z,34.50
2023-02-28T19:51:01.233Z,39.58
2023-02-28T19:53:30.256Z,39.35
2023-02-28T19:55:57.137Z,33.33
2023-02-28T19:58:23.772Z,32.40
2023-02-28T20:00:50.535Z,33.22
2023-02-28T20:03:20.496Z,31.35
2023-02-28T20:05:47.668Z,32.40
2023-02-28T20:08:15.027Z,31.35
2023-02-28T20:10:41.970Z,31.30
2023-02-28T20:13:08.699Z,31.08
2023-02-28T20:15:37.127Z,31.80
2023-02-28T20:18:04.692Z,31.33
2023-02-28T20:20:31.447Z,31.92
2023-02-28T20:22:58.055Z,29.55
2023-02-28T20:25:24.663Z,32.40
2023-02-28T20:27:51.320Z,30.75
2023-02-28T20:30:21.841Z,30.00
2023-02-28T20:32:49.149Z,29.90
2023-02-28T20:35:16.016Z,30.73
2023-02-28T20:37:43.143Z,30.30
2023-02-28T20:40:10.410Z,30.83
2023-02-28T20:42:37.238Z,30.88
2023-02-28T20:45:04.296Z,31.52
2023-02-28T20:47:30.896Z,31.33
2023-02-28T20:49:57.534Z,29.77
2023-02-28T20:52:24.195Z,31.63
2023-02-28T20:54:51.036Z,30.02
2023-02-28T20:57:17.711Z,30.50
2023-02-28T20:59:44.399Z,31.10
2023-02-28T21:02:15.982Z,34.55
2023-02-28T21:04:42.924Z,94.93
2023-02-28T21:07:09.534Z,49.42
2023-02-28T21:09:36.213Z,33.33
2023-02-28T21:12:02.832Z,32.40
2023-02-28T21:14:29.482Z,30.58
2023-02-28T21:16:56.119Z,31.38
2023-02-28T21:19:22.956Z,30.50
2023-02-28T21:21:49.910Z,31.10
2023-02-28T21:24:18.711Z,30.38
2023-02-28T21:26:46.954Z,33.55
2023-02-28T21:29:14.741Z,30.33
2023-02-28T21:31:41.464Z,29.95
2023-02-28T21:34:09.578Z,30.83
2023-02-28T21:36:39.401Z,31.52
2023-02-28T21:39:17.976Z,32.50
2023-02-28T21:41:45.247Z,31.38
2023-02-28T21:44:18.318Z,31.42
2023-02-28T21:46:47.475Z,33.15
2023-02-28T21:49:15.668Z,33.20
2023-02-28T21:51:43.076Z,34.38
2023-02-28T21:54:10.992Z,33.35
2023-02-28T21:56:37.970Z,32.20
2023-02-28T21:59:06.827Z,31.55
2023-02-28T22:01:38.646Z,31.95
2023-02-28T22:04:08.222Z,31.73
2023-02-28T22:06:37.912Z,31.95
2023-02-28T22:09:07.484Z,30.25
2023-02-28T22:11:35.557Z,34.88
2023-02-28T22:14:02.299Z,29.88
2023-02-28T22:16:33.155Z,30.17
2023-02-28T22:19:07.701Z,58.60
2023-02-28T22:21:39.403Z,49.15
2023-02-28T22:24:06.593Z,52.22
2023-02-28T22:26:33.474Z,44.15
2023-02-28T22:29:00.661Z,36.28
2023-02-28T22:31:33.282Z,38.70
2023-02-28T22:34:02.508Z,49.88
2023-02-28T22:36:31.029Z,52.63
2023-02-28T22:38:58.721Z,37.53
2023-02-28T22:41:26.479Z,34.38
2023-02-28T22:43:55.623Z,33.10
2023-02-28T22:46:24.312Z,33.25
2023-02-28T22:48:51.322Z,32.75
2023-02-28T22:51:20.307Z,32.67
2023-02-28T22:53:48.548Z,32.58
2023-02-28T22:56:17.287Z,33.53
2023-02-28T22:58:47.929Z,33.33
2023-02-28T23:01:16.775Z,32.38
2023-02-28T23:03:43.834Z,32.72
2023-02-28T23:06:35.516Z,33.92
2023-02-28T23:09:05.582Z,31.48
2023-02-28T23:11:34.882Z,31.05
2023-02-28T23:14:02.129Z,31.25
2023-02-28T23:16:56.489Z,32.58
2023-02-28T23:19:32.200Z,31.83
2023-02-28T23:22:00.838Z,31.52
2023-02-28T23:24:31.135Z,33.03
2023-02-28T23:27:00.441Z,32.28
2023-02-28T23:29:28.504Z,31.25
2023-02-28T23:31:55.837Z,32.42
2023-02-28T23:34:30.346Z,31.17
2023-02-28T23:36:59.428Z,32.50
2023-02-28T23:39:27.473Z,32.15
2023-02-28T23:41:54.769Z,33.03
2023-02-28T23:44:21.597Z,32.00
2023-02-28T23:46:50.795Z,31.38
2023-02-28T23:49:20.985Z,33.30
2023-02-28T23:51:49.427Z,32.30
2023-02-28T23:54:17.376Z,32.30
2023-02-28T23:56:44.557Z,32.40
2023-02-28T23:59:11.790Z,31.92
